ESSAESOE

Guest
Details From ESSA - Stockholm Arlanda
To ESOE - Orebro
Flight Number -
Tags generated
Created
Modified
Stats Distance 92 nm / 171 km
Max Altitude 8,000 ft / 2,438 m
Waypoints 3
Social Downloads 7
Likes 0
Share VATSIM

Download

Looking for another format? Having issues loading an existing format? Contact us
Advertisement - Login to hide

Notes

Basic altitude profile: - Ascent Rate: 2500ft/min - Ascent Speed: 250kts - Cruise Altitude: 35000ft - Cruise Speed: 420kts - Descent Rate: 1500ft/min - Descent Speed: 250kts Options: - Use NATs: yes - Use PACOTS: yes - Use low airways: yes - Use high airways: yes

Route

ESSA TORVA ESOE

ID Type Via Altitude Latitude Longitude Leg Dist Tot Dist Heading (true) Name
O ESSA APT - 0 ft / 0 m 59.65014˚ 17.94363˚ - 0 nm - Stockholm Arlanda
TORVA FIX - 8,000 ft / 2,438 m 59.41244˚ 16.21197˚ 54 nm 54 nm 256° / 254° -
O ESOE APT - 0 ft / 0 m 59.22242˚ 15.03743˚ 37 nm 92 nm 253° / 252° Orebro

Altitude Profile

Advertisement - Login to hide

ESSA

Details ICAO ESSA (ARN)
Name Stockholm Arlanda
Region Sweden
Timezone Europe/Stockholm (UTC+2.0)
Stats Elevation 137 ft / 42 m (AMSL)
Location 59.650140° 17.943628°
Runways 3
Magnetic Variation 6.172° E

METAR

ESSA 232220Z 36002KT CAVOK 06/02 Q1029 NOSIG

Decode

TAF

TAF ESSA 231730Z 2318/2418 02006KT CAVOK BECMG 2415/2417 15010KT

Decode

Departure Runways

ID Width Length Bearing (true) Bearing (mag) Surface Threshold Offset Overrun Length
01L 148 ft / 45 m 10,812 ft / 3,296 m 10.35° 4.18° Concrete 0 ft / 0 m 0 ft / 0 m
01R 148 ft / 45 m 8,188 ft / 2,496 m 10.38° 4.21° Asphalt 0 ft / 0 m 0 ft / 0 m
08 148 ft / 45 m 8,178 ft / 2,493 m 75.83° 69.66° Concrete 0 ft / 0 m 0 ft / 0 m
19L 148 ft / 45 m 8,188 ft / 2,496 m 190.39° 184.22° Asphalt 0 ft / 0 m 0 ft / 0 m
19R 148 ft / 45 m 10,812 ft / 3,296 m 190.36° 184.19° Concrete 0 ft / 0 m 0 ft / 0 m
26 148 ft / 45 m 8,178 ft / 2,493 m 255.87° 249.70° Concrete 0 ft / 0 m 0 ft / 0 m

ESOE

Details ICAO ESOE (ORB)
Name Orebro
Region Sweden
Timezone Europe/Stockholm (UTC+2.0)
Stats Elevation 188 ft / 57 m (AMSL)
Location 59.222418° 15.037425°
Runways 1
Magnetic Variation 4.976° E

METAR

ESOE 232220Z 06004KT CAVOK 15/08 Q1029

Decode

TAF

Not found

Destination Runways

ID Width Length Bearing (true) Bearing (mag) Surface Threshold Offset Overrun Length
01 148 ft / 45 m 8,521 ft / 2,597 m 11.65° 6.67° Asphalt 0 ft / 0 m 0 ft / 0 m
19 148 ft / 45 m 8,521 ft / 2,597 m 191.66° 186.68° Asphalt 0 ft / 0 m 0 ft / 0 m

Approach Navaids

Runway Type Ident Frequency Range Bearing (true) Bearing (mag) Slope Elevation
01 Localiser SOE 109.10 MHz 18 nm / 33 km 11.68° 6.70° - 188 ft / 57 m (AMSL)
01 Glidescope SOE 109.10 MHz 10 nm / 19 km 11.66° 6.68° 3.00° 188 ft / 57 m (AMSL)
01 DME SOE 109.10 MHz 18 nm / 33 km - - - 188 ft / 57 m (AMSL)
19 Localiser NOE 108.50 MHz 18 nm / 33 km 191.74° 186.77° - 188 ft / 57 m (AMSL)
19 Glidescope NOE 108.50 MHz 10 nm / 19 km 191.66° 186.68° 3.00° 188 ft / 57 m (AMSL)

Popular Alternatives